Time;durP1;ratioP1;P1;durP2;ratioP2;P2;SDS_P1;SDS_P2;PMS_P1;PMS_P2;Temp;Humidity;BMP_temperature;BMP_pressure;BME280_temperature;BME280_humidity;BME280_pressure;Samples;Min_cycle;Max_cycle;Signal;HPM_P1;HPM_P2
2023/01/02 00:00:23;;;;;;;0.00;0.00;;;9.60;92.30;;;;;;5011644;28;20104;-74
2023/01/02 00:02:49;;;;;;;0.00;0.00;;;9.60;92.30;;;;;;5002822;28;20667;-73
2023/01/02 00:05:15;;;;;;;0.00;0.00;;;9.60;92.30;;;;;;4993053;28;20042;-73
2023/01/02 00:07:40;;;;;;;0.00;0.00;;;9.60;92.30;;;;;;4987557;28;20449;-73
2023/01/02 00:10:06;;;;;;;0.00;0.00;;;9.60;92.30;;;;;;5009975;28;20051;-74
2023/01/02 00:12:32;;;;;;;0.00;0.00;;;9.60;92.30;;;;;;5000964;28;20620;-73
2023/01/02 00:14:57;;;;;;;0.00;0.00;;;9.60;92.30;;;;;;4992456;28;20097;-73
2023/01/02 00:17:24;;;;;;;0.00;0.00;;;9.60;92.30;;;;;;4993515;28;20042;-73
2023/01/02 00:19:49;;;;;;;0.00;0.00;;;9.60;92.30;;;;;;4975949;28;20101;-73
2023/01/02 00:22:15;;;;;;;0.00;0.00;;;9.60;92.40;;;;;;4998275;28;20050;-73
2023/01/02 00:24:40;;;;;;;0.00;0.00;;;9.70;92.40;;;;;;4975293;28;20073;-73
2023/01/02 00:27:06;;;;;;;0.00;0.00;;;9.70;92.50;;;;;;4995070;28;20049;-73
2023/01/02 00:29:31;;;;;;;0.00;0.00;;;9.60;92.60;;;;;;5001385;28;20043;-73
2023/01/02 00:31:58;;;;;;;0.00;0.00;;;9.60;92.60;;;;;;4975562;28;20559;-73
2023/01/02 00:34:24;;;;;;;0.00;0.00;;;9.60;92.80;;;;;;4990343;28;20089;-74
2023/01/02 00:36:50;;;;;;;0.00;0.00;;;9.70;92.90;;;;;;4997898;28;20043;-73
2023/01/02 00:39:16;;;;;;;0.00;0.00;;;9.60;92.80;;;;;;4998620;28;20125;-73
2023/01/02 00:41:41;;;;;;;0.17;0.17;;;9.70;93.00;;;;;;5011557;28;20042;-74
2023/01/02 00:44:07;;;;;;;0.00;0.00;;;9.70;93.20;;;;;;4993390;28;20085;-74
2023/01/02 00:46:32;;;;;;;0.00;0.00;;;9.80;93.30;;;;;;5010536;28;20042;-74
2023/01/02 00:48:58;;;;;;;0.00;0.00;;;9.90;93.40;;;;;;4976200;28;20073;-73
2023/01/02 00:51:23;;;;;;;0.00;0.00;;;9.90;93.50;;;;;;4974999;28;20038;-74
2023/01/02 00:53:49;;;;;;;0.00;0.00;;;10.00;93.80;;;;;;4984432;28;20061;-73
2023/01/02 00:56:15;;;;;;;0.00;0.00;;;10.00;93.70;;;;;;5006126;28;20042;-73
2023/01/02 00:58:40;;;;;;;0.00;0.00;;;10.10;93.70;;;;;;5002004;28;20450;-74
2023/01/02 01:01:06;;;;;;;0.00;0.00;;;10.10;93.80;;;;;;4958815;28;20054;-74
2023/01/02 01:03:31;;;;;;;0.00;0.00;;;10.20;93.90;;;;;;4979272;28;20504;-74
2023/01/02 01:05:57;;;;;;;0.00;0.00;;;10.20;93.80;;;;;;4976004;28;20157;-74
2023/01/02 01:08:23;;;;;;;0.00;0.00;;;10.20;93.80;;;;;;4977127;28;20498;-74
2023/01/02 01:10:50;;;;;;;0.00;0.00;;;10.20;93.80;;;;;;4992116;28;20043;-74
2023/01/02 01:13:16;;;;;;;0.10;0.10;;;10.30;93.80;;;;;;5001699;28;20152;-74
2023/01/02 01:15:41;;;;;;;0.00;0.00;;;10.30;93.90;;;;;;4993130;28;20132;-74
2023/01/02 01:18:07;;;;;;;0.00;0.00;;;10.30;93.90;;;;;;4978570;28;20046;-74
2023/01/02 01:20:36;;;;;;;0.00;0.00;;;10.20;94.10;;;;;;4991150;28;20168;-74
2023/01/02 01:23:02;;;;;;;0.00;0.00;;;10.30;94.10;;;;;;4993376;28;20521;-73
2023/01/02 01:25:28;;;;;;;0.00;0.00;;;10.30;94.10;;;;;;4992363;28;20046;-74
2023/01/02 01:27:53;;;;;;;0.28;0.28;;;10.30;94.20;;;;;;4999246;28;20516;-74
2023/01/02 01:30:19;;;;;;;0.00;0.00;;;10.30;94.20;;;;;;5004232;28;20046;-74
2023/01/02 01:32:44;;;;;;;0.00;0.00;;;10.30;94.20;;;;;;4982743;28;20042;-74
2023/01/02 01:35:10;;;;;;;0.10;0.10;;;10.30;94.30;;;;;;4958717;28;20054;-74
2023/01/02 01:37:38;;;;;;;0.00;0.00;;;10.30;94.20;;;;;;4982354;28;20486;-74
2023/01/02 01:40:04;;;;;;;0.00;0.00;;;10.30;94.30;;;;;;5002814;28;20053;-74
2023/01/02 01:42:34;;;;;;;0.00;0.00;;;10.30;94.30;;;;;;5011362;28;20046;-74
2023/01/02 01:44:59;;;;;;;0.00;0.00;;;10.30;94.30;;;;;;5010134;28;20143;-74
2023/01/02 01:47:47;;;;;;;0.00;0.00;;;10.30;94.30;;;;;;4973703;28;20069;-74
2023/01/02 01:50:24;;;;;;;0.00;0.00;;;10.30;94.30;;;;;;4991047;28;20050;-74
2023/01/02 01:53:04;;;;;;;0.00;0.00;;;10.40;94.30;;;;;;4991250;28;20569;-74
2023/01/02 01:55:33;;;;;;;0.00;0.00;;;10.40;94.40;;;;;;4973277;28;20046;-74
2023/01/02 01:58:02;;;;;;;0.00;0.00;;;10.40;94.40;;;;;;4991860;28;20043;-74
2023/01/02 02:00:29;;;;;;;0.00;0.00;;;10.40;94.50;;;;;;4991346;28;20104;-74
2023/01/02 02:03:03;;;;;;;0.00;0.00;;;10.40;94.50;;;;;;4990933;28;20046;-74
2023/01/02 02:05:30;;;;;;;0.00;0.00;;;10.40;94.50;;;;;;4991795;28;20078;-74
2023/01/02 02:08:46;;;;;;;0.00;0.00;;;10.40;94.40;;;;;;5000397;28;20558;-74
2023/01/02 02:11:12;;;;;;;0.00;0.00;;;10.40;94.50;;;;;;4891406;29;20180;-74
2023/01/02 02:13:39;;;;;;;0.00;0.00;;;10.40;94.60;;;;;;4970703;28;20054;-74
2023/01/02 02:16:16;;;;;;;0.30;0.30;;;10.40;94.60;;;;;;4995745;28;20060;-74
2023/01/02 02:19:00;;;;;;;0.00;0.00;;;10.50;94.50;;;;;;4998467;28;20042;-74
2023/01/02 02:21:44;;;;;;;0.10;0.10;;;10.50;94.60;;;;;;4973469;28;20406;-73
2023/01/02 02:24:58;;;;;;;0.10;0.10;;;10.50;94.70;;;;;;4953885;28;20043;-74
2023/01/02 02:27:49;;;;;;;0.25;0.15;;;10.60;94.80;;;;;;4987756;28;20045;-74
2023/01/02 02:30:18;;;;;;;0.38;0.38;;;10.60;94.90;;;;;;5010064;28;20100;-74
2023/01/02 02:33:05;;;;;;;0.10;0.10;;;10.60;94.90;;;;;;4994211;28;20066;-74
2023/01/02 02:35:31;;;;;;;0.00;0.00;;;10.60;94.90;;;;;;4990243;28;20487;-74
2023/01/02 02:38:22;;;;;;;0.65;0.65;;;10.60;94.80;;;;;;4976642;28;20129;-74
2023/01/02 02:41:21;;;;;;;0.00;0.00;;;10.60;94.80;;;;;;4977521;28;20052;-74
2023/01/02 02:44:07;;;;;;;0.10;0.10;;;10.70;94.90;;;;;;4976395;28;20053;-74
2023/01/02 02:46:40;;;;;;;0.00;0.00;;;10.70;95.00;;;;;;5002112;28;20085;-74
2023/01/02 02:49:28;;;;;;;0.00;0.00;;;10.60;95.00;;;;;;4998769;28;20136;-74
2023/01/02 02:52:08;;;;;;;0.00;0.00;;;10.70;95.00;;;;;;4983037;28;20088;-74
2023/01/02 02:54:48;;;;;;;0.00;0.00;;;10.60;95.00;;;;;;5009238;28;20991;-74
2023/01/02 02:57:15;;;;;;;0.00;0.00;;;10.60;95.00;;;;;;5004811;28;20042;-74
2023/01/02 02:59:41;;;;;;;0.00;0.00;;;10.60;95.10;;;;;;4993274;28;20038;-74
2023/01/02 03:02:08;;;;;;;0.25;0.25;;;10.60;95.10;;;;;;5008731;28;20065;-74
2023/01/02 03:04:33;;;;;;;0.00;0.00;;;10.60;95.10;;;;;;5003422;28;20035;-74
2023/01/02 03:07:38;;;;;;;0.00;0.00;;;10.60;95.10;;;;;;4972119;28;20050;-74
2023/01/02 03:10:37;;;;;;;0.00;0.00;;;10.60;95.10;;;;;;4952257;28;20090;-75
2023/01/02 03:13:30;;;;;;;0.10;0.10;;;10.60;95.20;;;;;;4987186;28;20034;-74
2023/01/02 03:16:04;;;;;;;0.10;0.10;;;10.60;95.30;;;;;;4990717;28;20105;-74
2023/01/02 03:18:59;;;;;;;0.25;0.25;;;10.60;95.30;;;;;;5006892;28;20056;-74
2023/01/02 03:21:34;;;;;;;0.00;0.00;;;10.70;95.40;;;;;;4991597;28;20129;-74
2023/01/02 03:24:06;;;;;;;1.10;0.98;;;10.70;95.30;;;;;;4996221;28;20101;-74
2023/01/02 03:26:33;;;;;;;0.00;0.00;;;10.80;95.40;;;;;;4973202;28;20058;-74
2023/01/02 03:29:18;;;;;;;0.05;0.05;;;10.80;95.40;;;;;;4990627;28;20058;-74
2023/01/02 03:31:49;;;;;;;0.10;0.10;;;10.80;95.40;;;;;;4989835;28;20377;-74
2023/01/02 03:34:19;;;;;;;0.50;0.50;;;10.90;95.40;;;;;;4984317;28;20078;-74
2023/01/02 03:36:52;;;;;;;0.00;0.00;;;10.90;95.40;;;;;;5003070;28;20050;-74
2023/01/02 03:39:22;;;;;;;0.03;0.03;;;10.90;95.40;;;;;;4978241;28;20642;-74
2023/01/02 03:42:11;;;;;;;0.10;0.10;;;10.90;95.40;;;;;;4971774;28;20042;-74
2023/01/02 03:44:44;;;;;;;0.00;0.00;;;10.90;95.40;;;;;;4965872;28;20046;-74
2023/01/02 03:47:32;;;;;;;0.68;0.52;;;10.90;95.40;;;;;;4971717;28;20062;-74
2023/01/02 03:50:04;;;;;;;0.00;0.00;;;10.90;95.40;;;;;;4974412;28;20054;-74
2023/01/02 03:52:30;;;;;;;0.65;0.65;;;10.90;95.40;;;;;;4965820;28;20064;-74
2023/01/02 03:54:57;;;;;;;0.00;0.00;;;11.00;95.50;;;;;;4961900;28;20457;-74
2023/01/02 03:57:38;;;;;;;0.10;0.10;;;11.00;95.50;;;;;;4989134;28;20042;-74
2023/01/02 04:00:09;;;;;;;0.00;0.00;;;10.90;95.40;;;;;;4988259;28;20506;-74
2023/01/02 04:02:53;;;;;;;0.00;0.00;;;11.00;95.50;;;;;;4974255;28;20078;-74
2023/01/02 04:05:36;;;;;;;0.10;0.10;;;10.90;95.50;;;;;;4982023;28;20050;-74
2023/01/02 04:08:08;;;;;;;0.05;0.05;;;11.00;95.50;;;;;;4988691;28;20710;-74
2023/01/02 04:10:36;;;;;;;0.00;0.00;;;10.90;95.60;;;;;;4946656;28;20060;-74
2023/01/02 04:13:07;;;;;;;0.00;0.00;;;10.90;95.60;;;;;;4989038;28;20597;-74
2023/01/02 04:15:35;;;;;;;0.00;0.00;;;10.90;95.60;;;;;;4989122;28;20047;-74
2023/01/02 04:18:25;;;;;;;0.00;0.00;;;10.90;95.70;;;;;;4988997;28;20454;-74
2023/01/02 04:20:57;;;;;;;0.00;0.00;;;10.90;95.70;;;;;;4991597;28;20054;-74
2023/01/02 04:23:29;;;;;;;;;;;10.90;95.60;;;;;;4993131;28;20053;-74
2023/01/02 04:26:04;;;;;;;0.20;0.20;;;10.90;95.70;;;;;;4992733;28;19953;-74
2023/01/02 04:28:32;;;;;;;0.00;0.00;;;10.90;95.70;;;;;;4991072;28;20050;-73
2023/01/02 04:31:12;;;;;;;0.00;0.00;;;10.90;95.70;;;;;;4991853;28;20121;-74
2023/01/02 04:33:50;;;;;;;0.00;0.00;;;10.90;95.70;;;;;;4974784;28;20050;-73
2023/01/02 04:36:16;;;;;;;0.00;0.00;;;10.90;95.70;;;;;;4991761;28;20065;-73
2023/01/02 04:38:42;;;;;;;0.10;0.10;;;10.80;95.80;;;;;;4992369;28;20042;-73
2023/01/02 04:41:11;;;;;;;0.00;0.00;;;10.80;95.70;;;;;;4992073;28;20096;-73
2023/01/02 04:43:37;;;;;;;0.00;0.00;;;10.80;95.70;;;;;;4991870;28;20050;-73
2023/01/02 04:46:03;;;;;;;0.00;0.00;;;10.80;95.70;;;;;;4991792;28;20450;-73
2023/01/02 04:48:28;;;;;;;0.00;0.00;;;10.70;95.70;;;;;;5007338;28;20057;-73
2023/01/02 04:50:54;;;;;;;0.20;0.20;;;10.70;95.80;;;;;;5010606;28;20605;-73
2023/01/02 04:53:20;;;;;;;2.83;0.82;;;10.70;95.80;;;;;;5011396;28;20042;-73
2023/01/02 04:55:46;;;;;;;0.00;0.00;;;10.70;95.80;;;;;;5011182;28;20046;-73
2023/01/02 04:58:11;;;;;;;0.03;0.03;;;10.70;95.80;;;;;;5009208;28;20058;-73
2023/01/02 05:00:37;;;;;;;0.10;0.10;;;10.70;95.80;;;;;;4960241;28;20043;-73
2023/01/02 05:03:04;;;;;;;0.00;0.00;;;10.70;95.80;;;;;;4992019;28;20447;-73
2023/01/02 05:05:30;;;;;;;0.22;0.22;;;10.70;95.80;;;;;;4992079;28;20077;-73
2023/01/02 05:07:57;;;;;;;0.47;0.47;;;10.70;95.80;;;;;;4974181;28;20487;-73
2023/01/02 05:10:23;;;;;;;0.00;0.00;;;10.60;95.90;;;;;;5006521;28;20054;-73
2023/01/02 05:12:49;;;;;;;0.20;0.20;;;10.60;95.80;;;;;;5011561;28;20414;-73
2023/01/02 05:15:14;;;;;;;0.10;0.10;;;10.60;95.90;;;;;;5011029;28;20084;-74
2023/01/02 05:17:41;;;;;;;0.00;0.00;;;10.60;95.90;;;;;;5006068;28;20041;-73
2023/01/02 05:20:10;;;;;;;0.00;0.00;;;10.60;95.90;;;;;;4993764;28;20046;-73
2023/01/02 05:25:23;;;;;;;0.00;0.00;;;10.60;95.90;;;;;;4991865;28;20062;-73
2023/01/02 05:27:53;;;;;;;0.00;0.00;;;10.60;96.00;;;;;;4993397;28;20062;-73
2023/01/02 05:30:19;;;;;;;0.00;0.00;;;10.60;96.00;;;;;;4987912;28;20037;-73
2023/01/02 05:32:45;;;;;;;0.00;0.00;;;10.60;96.00;;;;;;4994265;28;20043;-73
2023/01/02 05:35:11;;;;;;;0.00;0.00;;;10.60;95.90;;;;;;4991361;28;20042;-73
2023/01/02 05:37:36;;;;;;;0.38;0.38;;;10.50;96.00;;;;;;4986611;28;20092;-73
2023/01/02 05:40:02;;;;;;;0.00;0.00;;;10.50;95.90;;;;;;4975476;28;20126;-73
2023/01/02 05:42:28;;;;;;;0.08;0.08;;;10.50;96.00;;;;;;4996869;28;20546;-73
2023/01/02 05:44:53;;;;;;;0.00;0.00;;;10.50;96.00;;;;;;4997390;28;20038;-73
2023/01/02 05:47:19;;;;;;;0.00;0.00;;;10.50;96.00;;;;;;5010507;28;20057;-73
2023/01/02 05:49:44;;;;;;;1.20;0.95;;;10.40;95.90;;;;;;5007235;28;20176;-73
2023/01/02 05:52:10;;;;;;;0.10;0.10;;;10.50;96.00;;;;;;4993537;28;20050;-73
2023/01/02 05:54:36;;;;;;;0.00;0.00;;;10.50;96.00;;;;;;4958327;28;20049;-73
2023/01/02 05:57:01;;;;;;;0.20;0.20;;;10.50;96.00;;;;;;4981451;28;20665;-74
2023/01/02 05:59:27;;;;;;;0.00;0.00;;;10.50;95.90;;;;;;5002317;28;20046;-73
2023/01/02 06:01:53;;;;;;;0.03;0.03;;;10.50;95.90;;;;;;5005530;28;20050;-73
2023/01/02 06:04:18;;;;;;;0.00;0.00;;;10.40;95.90;;;;;;4974731;28;20046;-73
2023/01/02 06:06:44;;;;;;;0.43;0.43;;;10.40;95.80;;;;;;5000202;28;20038;-73
2023/01/02 06:09:13;;;;;;;0.10;0.10;;;10.30;95.70;;;;;;5007978;28;20046;-73
2023/01/02 06:11:39;;;;;;;0.10;0.10;;;10.10;95.60;;;;;;5006226;28;20105;-72
2023/01/02 06:14:05;;;;;;;0.20;0.20;;;10.10;95.60;;;;;;4982622;28;20062;-73
2023/01/02 06:16:31;;;;;;;1.40;1.30;;;10.00;95.40;;;;;;5004963;28;20041;-73
2023/01/02 06:18:56;;;;;;;0.03;0.03;;;9.90;95.30;;;;;;4988968;28;20085;-73
2023/01/02 06:21:22;;;;;;;0.00;0.00;;;9.60;94.90;;;;;;4995797;28;20113;-73
2023/01/02 06:23:54;;;;;;;0.00;0.00;;;9.40;94.90;;;;;;4989311;28;20133;-73
2023/01/02 06:26:20;;;;;;;0.00;0.00;;;9.20;94.80;;;;;;4998108;28;20061;-73
2023/01/02 06:28:49;;;;;;;0.00;0.00;;;8.90;94.80;;;;;;5007354;28;20042;-73
2023/01/02 06:31:17;;;;;;;0.00;0.00;;;8.90;94.80;;;;;;4960227;28;20052;-73
2023/01/02 06:33:43;;;;;;;0.00;0.00;;;8.80;94.90;;;;;;4974399;28;20466;-73
2023/01/02 06:36:17;;;;;;;0.35;0.32;;;8.80;94.90;;;;;;4996254;28;20070;-73
2023/01/02 06:38:44;;;;;;;0.00;0.00;;;8.60;95.00;;;;;;4994958;28;20057;-68
2023/01/02 06:41:10;;;;;;;0.10;0.10;;;8.70;95.00;;;;;;4997296;28;20049;-73
2023/01/02 06:43:41;;;;;;;0.00;0.00;;;8.60;95.00;;;;;;5005565;28;20450;-71
2023/01/02 06:46:07;;;;;;;0.00;0.00;;;8.60;94.90;;;;;;5005754;28;20054;-72
2023/01/02 06:48:34;;;;;;;0.00;0.00;;;8.50;94.90;;;;;;4993025;28;20317;-73
2023/01/02 06:51:04;;;;;;;0.00;0.00;;;8.50;95.00;;;;;;4988850;28;20058;-73
2023/01/02 06:53:31;;;;;;;0.00;0.00;;;8.50;95.00;;;;;;4989294;28;20046;-73
2023/01/02 06:55:58;;;;;;;0.00;0.00;;;8.40;95.00;;;;;;4973027;28;20129;-73
2023/01/02 06:58:25;;;;;;;0.00;0.00;;;8.40;95.10;;;;;;4990292;28;20101;-73
2023/01/02 07:00:51;;;;;;;0.00;0.00;;;8.40;95.00;;;;;;4972798;28;20519;-73
2023/01/02 07:03:17;;;;;;;0.20;0.20;;;8.40;95.00;;;;;;4990617;28;20064;-72
2023/01/02 07:05:43;;;;;;;0.00;0.00;;;8.30;94.90;;;;;;4971638;28;20046;-74
2023/01/02 07:08:09;;;;;;;0.00;0.00;;;8.30;95.10;;;;;;4970233;28;20054;-74
2023/01/02 07:10:35;;;;;;;0.00;0.00;;;8.30;95.00;;;;;;4972394;28;20845;-73
2023/01/02 07:13:01;;;;;;;0.00;0.00;;;8.30;95.00;;;;;;4989673;28;20077;-73
2023/01/02 07:15:26;;;;;;;0.00;0.00;;;8.20;95.10;;;;;;4978595;28;20417;-73
2023/01/02 07:17:52;;;;;;;0.00;0.00;;;8.20;95.10;;;;;;4956374;28;20467;-73
2023/01/02 07:20:18;;;;;;;0.00;0.00;;;8.30;95.00;;;;;;4955293;28;20054;-73
2023/01/02 07:22:50;;;;;;;0.00;0.00;;;8.20;95.00;;;;;;4989955;28;20050;-73
2023/01/02 07:25:15;;;;;;;0.08;0.08;;;8.10;95.00;;;;;;4980240;28;20030;-73
2023/01/02 07:27:41;;;;;;;0.00;0.00;;;8.20;95.10;;;;;;4990335;28;20050;-74
2023/01/02 07:30:07;;;;;;;0.00;0.00;;;8.10;95.10;;;;;;4972594;28;20046;-73
2023/01/02 07:32:33;;;;;;;0.00;0.00;;;8.10;95.10;;;;;;4989430;28;20057;-73
2023/01/02 07:34:58;;;;;;;0.00;0.00;;;8.10;95.10;;;;;;4972341;28;20042;-74
2023/01/02 07:37:24;;;;;;;0.00;0.00;;;8.20;95.00;;;;;;4971224;28;20101;-71
2023/01/02 07:39:53;;;;;;;0.00;0.00;;;8.10;95.10;;;;;;4972420;28;20038;-72
2023/01/02 07:42:18;;;;;;;0.00;0.00;;;8.10;94.90;;;;;;4961218;28;20085;-71
2023/01/02 07:44:44;;;;;;;0.00;0.00;;;8.10;95.10;;;;;;4977646;28;20050;-70
2023/01/02 07:47:10;;;;;;;0.00;0.00;;;8.10;95.00;;;;;;4977102;28;20495;-71
2023/01/02 07:49:35;;;;;;;0.00;0.00;;;8.10;95.10;;;;;;4961194;28;20062;-71
2023/01/02 07:52:01;;;;;;;0.00;0.00;;;8.10;95.10;;;;;;4978260;28;20078;-71
2023/01/02 07:54:27;;;;;;;0.00;0.00;;;8.10;95.10;;;;;;4961231;28;20138;-71
2023/01/02 07:56:52;;;;;;;0.00;0.00;;;8.10;95.00;;;;;;4980894;28;20871;-71
2023/01/02 07:59:18;;;;;;;0.00;0.00;;;8.10;95.00;;;;;;4963724;28;20081;-72
2023/01/02 08:01:43;;;;;;;0.00;0.00;;;8.10;95.10;;;;;;4981298;28;20046;-72
2023/01/02 08:04:09;;;;;;;0.00;0.00;;;8.10;95.00;;;;;;4981502;28;20074;-71
2023/01/02 08:06:38;;;;;;;0.05;0.05;;;8.10;95.00;;;;;;4964372;28;20057;-72
2023/01/02 08:09:03;;;;;;;0.00;0.00;;;8.10;95.10;;;;;;4975321;28;20380;-71
2023/01/02 08:11:29;;;;;;;0.00;0.00;;;8.10;95.00;;;;;;4981289;28;20097;-71
2023/01/02 08:13:55;;;;;;;0.00;0.00;;;8.10;95.00;;;;;;4983434;28;20046;-71
2023/01/02 08:16:21;;;;;;;0.00;0.00;;;8.10;95.10;;;;;;4980433;28;20050;-72
2023/01/02 08:18:50;;;;;;;0.00;0.00;;;8.00;95.10;;;;;;4983854;28;20042;-72
2023/01/02 08:21:15;;;;;;;0.00;0.00;;;8.10;95.10;;;;;;4977370;28;20062;-72
2023/01/02 08:23:41;;;;;;;0.00;0.00;;;8.10;95.10;;;;;;4981257;28;20053;-73
2023/01/02 08:26:09;;;;;;;0.00;0.00;;;8.10;95.10;;;;;;4962054;28;20396;-72
2023/01/02 08:28:35;;;;;;;0.28;0.28;;;8.10;95.10;;;;;;4979550;28;20046;-71
2023/01/02 08:31:06;;;;;;;0.28;0.28;;;8.10;95.10;;;;;;4983851;28;20045;-72
2023/01/02 08:33:32;;;;;;;0.00;0.00;;;8.10;95.10;;;;;;4979799;28;20034;-73
2023/01/02 08:35:57;;;;;;;0.00;0.00;;;8.10;95.10;;;;;;4980710;28;20519;-72
2023/01/02 08:38:23;;;;;;;0.00;0.00;;;8.10;95.10;;;;;;4980832;28;20054;-72
2023/01/02 08:40:49;;;;;;;0.03;0.03;;;8.20;95.10;;;;;;4963874;28;20065;-73
2023/01/02 08:43:15;;;;;;;0.00;0.00;;;8.10;95.10;;;;;;4981589;28;20050;-73
2023/01/02 08:45:40;;;;;;;0.00;0.00;;;8.20;95.20;;;;;;4963768;28;20423;-73
2023/01/02 08:48:06;;;;;;;0.00;0.00;;;8.20;95.20;;;;;;4989313;28;20062;-72
2023/01/02 08:50:32;;;;;;;0.00;0.00;;;8.10;95.20;;;;;;4991601;28;20057;-73
2023/01/02 08:52:57;;;;;;;0.00;0.00;;;8.20;95.30;;;;;;4974806;28;20038;-73
2023/01/02 08:55:23;;;;;;;0.00;0.00;;;8.30;95.20;;;;;;4969312;28;21485;-73
2023/01/02 08:57:48;;;;;;;0.00;0.00;;;8.30;95.20;;;;;;4990545;28;20050;-73
2023/01/02 09:00:14;;;;;;;0.45;0.45;;;8.30;95.30;;;;;;4989934;28;20438;-73
2023/01/02 09:02:40;;;;;;;0.00;0.00;;;8.30;95.10;;;;;;4990691;28;20038;-73
2023/01/02 09:05:06;;;;;;;0.00;0.00;;;8.30;95.30;;;;;;4989043;28;20049;-73
2023/01/02 09:07:31;;;;;;;0.00;0.00;;;8.30;95.20;;;;;;4989103;28;20117;-72
2023/01/02 09:09:58;;;;;;;0.00;0.00;;;8.30;95.20;;;;;;4972707;28;20137;-73
2023/01/02 09:12:23;;;;;;;0.00;0.00;;;8.30;95.30;;;;;;4990881;28;20503;-73
2023/01/02 09:14:49;;;;;;;0.00;0.00;;;8.30;95.30;;;;;;4988768;28;20046;-73
2023/01/02 09:17:14;;;;;;;0.00;0.00;;;8.40;95.30;;;;;;4990294;28;20573;-72
2023/01/02 09:19:41;;;;;;;0.00;0.00;;;8.40;95.30;;;;;;4972405;28;20046;-71
2023/01/02 09:22:07;;;;;;;0.00;0.00;;;8.40;95.20;;;;;;4957671;28;20053;-72
2023/01/02 09:24:33;;;;;;;0.00;0.00;;;8.40;95.20;;;;;;4979835;28;20078;-71
2023/01/02 09:26:59;;;;;;;0.00;0.00;;;8.40;95.20;;;;;;4999279;28;20042;-72
2023/01/02 09:29:25;;;;;;;0.00;0.00;;;8.40;95.30;;;;;;4999260;28;20046;-72
2023/01/02 09:31:51;;;;;;;0.38;0.38;;;8.40;95.10;;;;;;4992627;28;20057;-72
2023/01/02 09:34:17;;;;;;;0.00;0.00;;;8.40;95.20;;;;;;4989610;28;20042;-69
2023/01/02 09:36:42;;;;;;;0.00;0.00;;;8.40;95.20;;;;;;4972943;28;20388;-71
2023/01/02 09:39:08;;;;;;;0.00;0.00;;;8.50;95.20;;;;;;4969355;28;20062;-71
2023/01/02 09:41:34;;;;;;;0.00;0.00;;;8.50;95.20;;;;;;4971961;28;20030;-72
2023/01/02 09:44:10;;;;;;;0.00;0.00;;;8.50;95.30;;;;;;4973954;28;20100;-71
2023/01/02 09:46:54;;;;;;;0.00;0.00;;;8.60;95.20;;;;;;4989571;28;20093;-73
2023/01/02 09:49:24;;;;;;;0.00;0.00;;;8.50;95.30;;;;;;4981820;28;20089;-71
2023/01/02 09:51:50;;;;;;;0.00;0.00;;;8.60;95.20;;;;;;4980239;28;20418;-71
2023/01/02 09:54:26;;;;;;;0.00;0.00;;;8.60;95.10;;;;;;4976869;28;20053;-69
2023/01/02 09:57:10;;;;;;;0.00;0.00;;;8.60;95.20;;;;;;4979550;28;20133;-71
2023/01/02 09:59:49;;;;;;;0.00;0.00;;;8.60;95.20;;;;;;4980578;28;20042;-70
2023/01/02 10:02:27;;;;;;;0.00;0.00;;;8.60;95.20;;;;;;4978457;28;20039;-70
2023/01/02 10:04:55;;;;;;;0.00;0.00;;;8.60;95.10;;;;;;4979451;28;20062;-70
2023/01/02 10:07:40;;;;;;;0.00;0.00;;;8.60;95.00;;;;;;4960033;28;20055;-70
2023/01/02 10:10:21;;;;;;;0.00;0.00;;;8.60;95.00;;;;;;4979406;28;20043;-72
2023/01/02 10:12:55;;;;;;;0.00;0.00;;;8.60;95.10;;;;;;4980150;28;20050;-71
2023/01/02 10:15:26;;;;;;;0.00;0.00;;;8.60;95.00;;;;;;4948421;28;20079;-71
2023/01/02 10:18:01;;;;;;;0.00;0.00;;;8.60;94.90;;;;;;4944109;28;20042;-71
2023/01/02 10:20:39;;;;;;;0.00;0.00;;;8.60;94.80;;;;;;4978917;28;20134;-73
2023/01/02 10:23:11;;;;;;;0.00;0.00;;;8.70;94.80;;;;;;4979843;28;20051;-72
2023/01/02 10:25:41;;;;;;;0.00;0.00;;;8.70;94.80;;;;;;4961893;28;20487;-71
2023/01/02 10:28:38;;;;;;;0.00;0.00;;;8.60;94.50;;;;;;4978727;28;20049;-70
2023/01/02 10:31:15;;;;;;;0.00;0.00;;;8.60;94.50;;;;;;4984300;28;20504;-71
2023/01/02 10:33:46;;;;;;;0.00;0.00;;;8.50;94.60;;;;;;4962427;28;20527;-71
2023/01/02 10:36:34;;;;;;;0.00;0.00;;;8.50;94.50;;;;;;4978744;28;20050;-71
2023/01/02 10:39:07;;;;;;;0.00;0.00;;;8.50;94.50;;;;;;4975998;28;20038;-71
2023/01/02 10:41:33;;;;;;;0.00;0.00;;;8.50;94.50;;;;;;4976375;28;20548;-71
2023/01/02 10:44:10;;;;;;;0.00;0.00;;;8.50;94.50;;;;;;4962105;28;20527;-71
2023/01/02 10:46:38;;;;;;;0.20;0.20;;;8.50;94.40;;;;;;4963179;28;20058;-71
2023/01/02 10:49:09;;;;;;;0.00;0.00;;;8.50;94.30;;;;;;5006544;28;20092;-71
2023/01/02 10:51:41;;;;;;;0.00;0.00;;;8.50;94.40;;;;;;5006681;28;20081;-71
2023/01/02 10:54:08;;;;;;;0.00;0.00;;;8.40;94.30;;;;;;5006426;28;20046;-71
2023/01/02 10:56:38;;;;;;;0.00;0.00;;;8.40;94.30;;;;;;5006114;28;20136;-71
2023/01/02 10:59:23;;;;;;;0.00;0.00;;;8.40;94.20;;;;;;5004591;28;20089;-72
2023/01/02 11:01:54;;;;;;;0.00;0.00;;;8.40;94.20;;;;;;5004768;28;20567;-71
2023/01/02 11:04:25;;;;;;;1.13;1.08;;;8.30;94.10;;;;;;5007227;28;20205;-71
2023/01/02 11:06:57;;;;;;;0.00;0.00;;;8.40;94.20;;;;;;4987753;28;20054;-71
2023/01/02 11:09:34;;;;;;;0.00;0.00;;;8.40;94.10;;;;;;5006496;28;20125;-71
2023/01/02 11:12:06;;;;;;;0.15;0.15;;;8.40;94.10;;;;;;5005972;28;20056;-71
2023/01/02 11:14:34;;;;;;;0.00;0.00;;;8.40;94.10;;;;;;5006383;28;20506;-71
2023/01/02 11:17:14;;;;;;;0.00;0.00;;;8.40;94.10;;;;;;5005720;28;20058;-71
2023/01/02 11:19:43;;;;;;;0.00;0.00;;;8.50;94.00;;;;;;4985651;28;20076;-71
2023/01/02 11:22:11;;;;;;;1.27;1.17;;;8.50;94.00;;;;;;4977117;28;20042;-71
2023/01/02 11:25:06;;;;;;;0.00;0.00;;;8.50;93.90;;;;;;4988438;28;20411;-71
2023/01/02 11:27:35;;;;;;;0.00;0.00;;;8.60;93.80;;;;;;4971858;28;20045;-71
2023/01/02 11:30:02;;;;;;;2.90;2.65;;;8.60;93.80;;;;;;5005411;28;20038;-71
2023/01/02 11:32:37;;;;;;;0.00;0.00;;;8.60;93.80;;;;;;5010336;28;20545;-71
2023/01/02 11:35:04;;;;;;;0.00;0.00;;;8.70;93.70;;;;;;5005514;28;20038;-71
2023/01/02 11:37:30;;;;;;;0.00;0.00;;;8.60;93.40;;;;;;5009993;28;20108;-71
2023/01/02 11:39:59;;;;;;;0.00;0.00;;;8.80;93.50;;;;;;5008508;28;20100;-71
2023/01/02 11:45:23;;;;;;;0.00;0.00;;;8.80;93.40;;;;;;5009110;28;20054;-71
2023/01/02 11:48:00;;;;;;;0.00;0.00;;;8.80;93.40;;;;;;5005820;28;20065;-71
2023/01/02 11:50:32;;;;;;;0.00;0.00;;;8.80;93.30;;;;;;5005829;28;20120;-70
2023/01/02 11:53:00;;;;;;;;;;;8.90;92.90;;;;;;5008173;28;20046;-71
2023/01/02 11:55:40;;;;;;;0.00;0.00;;;8.90;93.00;;;;;;5000645;28;19921;-70
2023/01/02 11:58:43;;;;;;;0.03;0.03;;;8.90;92.70;;;;;;5007709;28;20037;-70
2023/01/02 12:01:18;;;;;;;0.00;0.00;;;9.00;92.80;;;;;;4942343;28;20060;-71
2023/01/02 12:03:44;;;;;;;0.00;0.00;;;8.90;92.70;;;;;;5006889;28;20494;-71
2023/01/02 12:06:17;;;;;;;0.00;0.00;;;8.90;92.70;;;;;;5004301;28;20034;-70
2023/01/02 12:09:27;;;;;;;0.00;0.00;;;9.00;92.60;;;;;;5005288;28;20054;-70
2023/01/02 12:12:08;;;;;;;1.00;1.00;;;9.00;92.70;;;;;;4982814;28;20058;-72
2023/01/02 12:14:51;;;;;;;0.00;0.00;;;9.00;92.70;;;;;;5000848;28;20541;-71
2023/01/02 12:17:40;;;;;;;1.20;1.20;;;9.10;92.70;;;;;;4969355;28;20125;-72
2023/01/02 12:20:13;;;;;;;0.00;0.00;;;9.00;92.70;;;;;;5004396;28;20112;-71
2023/01/02 12:22:55;;;;;;;4.13;2.17;;;9.10;92.70;;;;;;5006348;28;20054;-71
2023/01/02 12:25:29;;;;;;;0.10;0.10;;;9.10;92.80;;;;;;4992936;28;20034;-72
2023/01/02 12:28:12;;;;;;;0.57;0.57;;;9.10;92.70;;;;;;4987060;28;20050;-71
2023/01/02 12:30:47;;;;;;;0.00;0.00;;;9.10;92.70;;;;;;4996666;28;20092;-71
2023/01/02 12:33:48;;;;;;;0.00;0.00;;;9.20;92.70;;;;;;4992996;28;20137;-72
2023/01/02 12:36:38;;;;;;;0.00;0.00;;;9.20;92.70;;;;;;4983603;28;20042;-72
2023/01/02 12:39:25;;;;;;;0.00;0.00;;;9.20;92.70;;;;;;4980960;28;20593;-72
2023/01/02 12:42:25;;;;;;;0.55;0.55;;;9.20;92.70;;;;;;5008357;28;20067;-72
2023/01/02 12:44:56;;;;;;;0.00;0.00;;;9.20;92.60;;;;;;4999947;28;20097;-72
2023/01/02 12:47:56;;;;;;;0.55;0.55;;;9.20;92.60;;;;;;5006885;28;20057;-72
2023/01/02 12:50:52;;;;;;;0.55;0.55;;;9.20;92.40;;;;;;4986236;28;20418;-70
2023/01/02 12:53:34;;;;;;;0.00;0.00;;;9.20;92.20;;;;;;5007073;28;20080;-70
2023/01/02 12:56:18;;;;;;;0.00;0.00;;;9.30;92.10;;;;;;4989654;28;20045;-70
2023/01/02 12:58:55;;;;;;;0.00;0.00;;;9.20;91.80;;;;;;5002637;28;20136;-70
2023/01/02 13:01:39;;;;;;;0.00;0.00;;;9.20;91.50;;;;;;4964873;28;20076;-70
2023/01/02 13:04:37;;;;;;;0.00;0.00;;;9.10;91.30;;;;;;5003915;28;20133;-70
2023/01/02 13:07:13;;;;;;;0.45;0.45;;;9.20;90.60;;;;;;5006664;28;20518;-70
2023/01/02 13:09:41;;;;;;;0.00;0.00;;;9.20;90.90;;;;;;5004594;28;20065;-70
2023/01/02 13:12:10;;;;;;;0.00;0.00;;;9.20;90.80;;;;;;5005740;28;20126;-70
2023/01/02 13:14:56;;;;;;;0.00;0.00;;;9.30;90.60;;;;;;4973312;28;20045;-70
2023/01/02 13:17:49;;;;;;;0.08;0.08;;;9.30;90.40;;;;;;5008420;28;20049;-70
2023/01/02 13:20:42;;;;;;;0.00;0.00;;;9.30;90.20;;;;;;5003014;28;20045;-71